^^
Your Local Weather - Clay, NY Station Historical Data
Daily Summary for July 19, 2017 Units:  English    Metric   Both
« Previous Day
Next Day »
Daily Weekly Monthly Yearly Custom
  High: Low: Average:
Temperature: 85.7 °F 59.5 °F 73.6 °F
Dew Point: 71.3 °F 57.8 °F 64.6 °F
Humidity: 95% 50% 76%
Wind Speed: 3.0mph 0.0mph 0.5mph
Wind Gust: 7.0mph - -
Wind- - WSW
Pressure: 30.02 in 29.91 in -
Precipitation: 0.00 in    
Historical Graphs
 
 
Tabular Data for July 19, 2017
Time Temperature Dew Point Pressure Wind Wind Speed Wind Gust Humidity Rainfall Rate (Hourly) solar
00:04 64.4 °F 61.7 °F 30.02 in Calm     91% 0.00 in 0 W/m2
00:10 64.3 °F 61.6 °F 30.01 in Calm     91% 0.00 in 0 W/m2
00:16 64.2 °F 61.8 °F 30.01 in Calm     92% 0.00 in 0 W/m2
00:22 64.2 °F 61.8 °F 30.02 in Calm     92% 0.00 in 0 W/m2
00:28 63.9 °F 61.5 °F 30.01 in Calm     92% 0.00 in 0 W/m2
00:34 63.8 °F 61.4 °F 30.01 in Calm     92% 0.00 in 0 W/m2
00:40 63.7 °F 61.3 °F 30.01 in Calm     92% 0.00 in 0 W/m2
00:46 63.6 °F 61.2 °F 30.00 in Calm     92% 0.00 in 0 W/m2
00:54 63.6 °F 61.2 °F 30.00 in Calm     92% 0.00 in 0 W/m2
01:00 63.6 °F 61.2 °F 30.01 in Calm     92% 0.00 in 0 W/m2
01:06 63.6 °F 61.2 °F 30.01 in Calm     92% 0.00 in 0 W/m2
01:12 63.4 °F 61.0 °F 30.01 in Calm     92% 0.00 in 0 W/m2
01:18 63.3 °F 60.9 °F 30.01 in Calm     92% 0.00 in 0 W/m2
01:24 63.2 °F 60.8 °F 30.01 in Calm     92% 0.00 in 0 W/m2
01:30 63.0 °F 60.6 °F 30.00 in Calm     92% 0.00 in 0 W/m2
01:36 62.8 °F 60.7 °F 30.00 in Calm     93% 0.00 in 0 W/m2
01:42 62.8 °F 60.7 °F 30.00 in Calm     93% 0.00 in 0 W/m2
01:48 62.8 °F 60.7 °F 30.00 in Calm     93% 0.00 in 0 W/m2
01:54 62.6 °F 60.5 °F 30.00 in Calm     93% 0.00 in 0 W/m2
02:00 62.4 °F 60.3 °F 30.00 in Calm     93% 0.00 in 0 W/m2
02:06 62.3 °F 60.2 °F 30.00 in Calm     93% 0.00 in 0 W/m2
02:12 62.3 °F 60.2 °F 30.00 in Calm     93% 0.00 in 0 W/m2
02:18 62.2 °F 60.2 °F 30.00 in Calm     93% 0.00 in 0 W/m2
02:24 62.0 °F 60.0 °F 30.00 in Calm     93% 0.00 in 0 W/m2
02:30 62.0 °F 60.0 °F 29.99 in Calm     93% 0.00 in 0 W/m2
02:36 61.9 °F 59.9 °F 29.99 in Calm     93% 0.00 in 0 W/m2
02:42 62.0 °F 60.0 °F 29.99 in Calm     93% 0.00 in 0 W/m2
02:48 62.1 °F 60.1 °F 29.99 in Calm     93% 0.00 in 0 W/m2
02:54 62.1 °F 60.1 °F 29.99 in Calm     93% 0.00 in 0 W/m2
03:00 62.0 °F 60.0 °F 29.99 in Calm     93% 0.00 in 0 W/m2
03:06 61.9 °F 59.9 °F 29.99 in Calm     93% 0.00 in 0 W/m2
03:12 62.0 °F 60.0 °F 29.99 in Calm     93% 0.00 in 0 W/m2
03:18 62.0 °F 60.0 °F 29.99 in Calm     93% 0.00 in 0 W/m2
03:24 62.0 °F 60.0 °F 29.99 in Calm     93% 0.00 in 0 W/m2
03:30 61.8 °F 59.8 °F 29.99 in Calm     93% 0.00 in 0 W/m2
03:36 61.6 °F 59.6 °F 29.99 in Calm     93% 0.00 in 0 W/m2
03:42 61.5 °F 59.5 °F 29.99 in Calm     93% 0.00 in 0 W/m2
03:48 61.7 °F 60.0 °F 29.99 in Calm     94% 0.00 in 0 W/m2
03:54 61.8 °F 60.1 °F 29.99 in Calm     94% 0.00 in 0 W/m2
04:00 61.8 °F 60.1 °F 29.99 in Calm     94% 0.00 in 0 W/m2
04:06 61.7 °F 60.0 °F 29.99 in Calm     94% 0.00 in 0 W/m2
04:12 61.7 °F 60.0 °F 29.99 in Calm     94% 0.00 in 0 W/m2
04:18 61.8 °F 60.1 °F 29.99 in Calm     94% 0.00 in 0 W/m2
04:24 61.8 °F 60.1 °F 29.99 in Calm     94% 0.00 in 0 W/m2
04:30 61.7 °F 60.0 °F 29.99 in Calm     94% 0.00 in 0 W/m2
04:36 61.5 °F 59.8 °F 29.99 in Calm     94% 0.00 in 0 W/m2
04:42 61.3 °F 59.6 °F 29.99 in Calm     94% 0.00 in 0 W/m2
04:48 61.2 °F 59.5 °F 29.99 in Calm     94% 0.00 in 0 W/m2
04:54 61.1 °F 59.4 °F 29.99 in Calm     94% 0.00 in 0 W/m2
05:00 60.9 °F 59.2 °F 29.99 in Calm     94% 0.00 in 0 W/m2
05:06 60.7 °F 59.0 °F 29.99 in Calm     94% 0.00 in 0 W/m2
05:12 60.5 °F 58.8 °F 29.99 in Calm     94% 0.00 in 0 W/m2
05:18 60.4 °F 58.7 °F 30.00 in Calm     94% 0.00 in 0 W/m2
05:24 60.2 °F 58.5 °F 30.00 in Calm     94% 0.00 in 0 W/m2
05:30 60.1 °F 58.4 °F 30.00 in Calm     94% 0.00 in 0 W/m2
05:36 60.0 °F 58.3 °F 30.00 in Calm     94% 0.00 in 0 W/m2
05:42 59.8 °F 58.1 °F 30.00 in Calm     94% 0.00 in 0 W/m2
05:48 59.7 °F 58.0 °F 30.00 in Calm     94% 0.00 in 5 W/m2
05:54 59.6 °F 57.9 °F 30.00 in Calm     94% 0.00 in 7 W/m2
06:00 59.6 °F 57.9 °F 30.00 in Calm     94% 0.00 in 9 W/m2
06:06 59.5 °F 57.8 °F 30.00 in Calm     94% 0.00 in 12 W/m2
06:12 59.5 °F 57.8 °F 30.00 in Calm     94% 0.00 in 16 W/m2
06:18 59.6 °F 57.9 °F 30.00 in Calm     94% 0.00 in 21 W/m2
06:24 59.6 °F 57.9 °F 30.00 in Calm     94% 0.00 in 25 W/m2
06:30 59.6 °F 57.9 °F 30.00 in Calm     94% 0.00 in 35 W/m2
06:36 59.6 °F 57.9 °F 30.00 in Calm     94% 0.00 in 40 W/m2
06:42 60.2 °F 58.5 °F 30.00 in Calm     94% 0.00 in 102 W/m2
06:48 61.4 °F 60.0 °F 30.00 in Calm     95% 0.00 in 114 W/m2
06:54 61.8 °F 60.1 °F 30.01 in Calm     94% 0.00 in 134 W/m2
07:00 62.4 °F 60.9 °F 30.01 in Calm     95% 0.00 in 148 W/m2
07:06 63.1 °F 61.6 °F 30.01 in Calm     95% 0.00 in 162 W/m2
07:12 63.7 °F 62.2 °F 30.01 in Calm     95% 0.00 in 172 W/m2
07:18 63.8 °F 62.3 °F 30.01 in Calm     95% 0.00 in 188 W/m2
07:24 64.3 °F 62.5 °F 30.01 in Calm     94% 0.00 in 202 W/m2
07:30 65.2 °F 63.7 °F 30.00 in Calm     95% 0.00 in 214 W/m2
07:36 65.9 °F 64.1 °F 30.00 in Calm     94% 0.00 in 225 W/m2
07:42 66.4 °F 64.6 °F 30.00 in Calm     94% 0.00 in 243 W/m2
07:48 66.9 °F 65.1 °F 30.00 in Calm     94% 0.00 in 260 W/m2
07:54 67.3 °F 65.2 °F 30.00 in Calm     93% 0.00 in 271 W/m2
08:00 67.8 °F 65.4 °F 30.01 in Calm     92% 0.00 in 294 W/m2
08:06 68.5 °F 65.8 °F 30.01 in Calm     91% 0.00 in 322 W/m2
08:12 68.8 °F 65.7 °F 30.01 in Calm     90% 0.00 in 336 W/m2
08:18 69.1 °F 65.7 °F 30.01 in Calm     89% 0.00 in 353 W/m2
08:24 69.4 °F 65.4 °F 30.01 in Calm     87% 0.00 in 360 W/m2
08:30 70.1 °F 65.7 °F 30.01 in Calm     86% 0.00 in 392 W/m2
08:36 70.7 °F 66.0 °F 30.01 in Calm     85% 0.00 in 401 W/m2
08:42 71.2 °F 66.1 °F 30.01 in Calm     84% 0.00 in 425 W/m2
08:48 71.7 °F 65.9 °F 30.01 in Calm     82% 0.00 in 454 W/m2
08:54 72.2 °F 65.7 °F 30.01 in Calm     80% 0.00 in 471 W/m2
09:00 73.0 °F 66.5 °F 30.01 in Calm     80% 0.00 in 490 W/m2
09:06 73.2 °F 65.9 °F 30.01 in Calm     78% 0.00 in 504 W/m2
09:12 73.3 °F 64.9 °F 30.01 in SW 1.0 mph 1.0 mph 75% 0.00 in 524 W/m2
09:18 73.5 °F 63.5 °F 30.01 in WSW 1.0 mph 3.0 mph 71% 0.00 in 545 W/m2
09:24 74.1 °F 65.3 °F 30.00 in Calm   1.0 mph 74% 0.00 in 561 W/m2
09:30 75.1 °F 65.9 °F 30.00 in Calm     73% 0.00 in 582 W/m2
09:36 75.7 °F 66.0 °F 30.00 in Calm   3.0 mph 72% 0.00 in 601 W/m2
09:44 75.8 °F 64.5 °F 30.00 in Calm     68% 0.00 in 628 W/m2
09:50 76.1 °F 64.8 °F 30.00 in Calm     68% 0.00 in 645 W/m2
09:56 76.7 °F 64.5 °F 30.00 in Calm     66% 0.00 in 661 W/m2
10:02 77.1 °F 62.6 °F 30.00 in Calm     61% 0.00 in 677 W/m2
10:08 77.3 °F 64.2 °F 30.00 in Calm   1.0 mph 64% 0.00 in 694 W/m2
10:14 77.6 °F 64.5 °F 30.00 in Calm     64% 0.00 in 703 W/m2
10:20 77.4 °F 63.4 °F 30.00 in SW 1.0 mph 1.0 mph 62% 0.00 in 715 W/m2
10:26 77.5 °F 62.5 °F 30.00 in SW 2.0 mph 3.0 mph 60% 0.00 in 737 W/m2
10:32 77.9 °F 62.9 °F 30.00 in SW 1.0 mph 2.0 mph 60% 0.00 in 751 W/m2
10:38 78.3 °F 62.3 °F 30.00 in WSW 1.0 mph 2.0 mph 58% 0.00 in 765 W/m2
10:44 79.3 °F 64.7 °F 30.00 in Calm   1.0 mph 61% 0.00 in 780 W/m2
10:50 79.2 °F 63.6 °F 29.99 in Calm     59% 0.00 in 793 W/m2
10:56 80.0 °F 63.9 °F 29.99 in WSW 1.0 mph 1.0 mph 58% 0.00 in 803 W/m2
11:02 79.2 °F 61.6 °F 29.99 in SW 1.0 mph 1.0 mph 55% 0.00 in 817 W/m2
11:08 79.1 °F 62.1 °F 29.99 in WSW 2.0 mph 2.0 mph 56% 0.00 in 824 W/m2
11:14 79.8 °F 62.2 °F 29.99 in WSW 1.0 mph 2.0 mph 55% 0.00 in 828 W/m2
11:20 80.4 °F 62.8 °F 29.99 in SSE 1.0 mph 5.0 mph 55% 0.00 in 844 W/m2
11:26 79.6 °F 63.0 °F 29.99 in South 2.0 mph 5.0 mph 57% 0.00 in 851 W/m2
11:32 79.8 °F 66.1 °F 29.99 in SSW 2.0 mph 3.0 mph 63% 0.00 in 858 W/m2
11:38 80.4 °F 62.2 °F 29.99 in SW 1.0 mph 5.0 mph 54% 0.00 in 874 W/m2
11:44 80.1 °F 63.5 °F 29.99 in WSW 3.0 mph 7.0 mph 57% 0.00 in 893 W/m2
11:50 80.1 °F 62.5 °F 29.99 in SW 3.0 mph 3.0 mph 55% 0.00 in 919 W/m2
11:56 80.9 °F 61.6 °F 29.99 in SW 1.0 mph 3.0 mph 52% 0.00 in 953 W/m2
12:02 81.5 °F 61.1 °F 29.99 in WSW 1.0 mph 1.0 mph 50% 0.00 in 1018 W/m2
12:08 82.0 °F 67.2 °F 29.99 in SSW 1.0 mph 1.0 mph 61% 0.00 in 1027 W/m2
12:14 81.6 °F 63.3 °F 29.99 in SW 1.0 mph 2.0 mph 54% 0.00 in 591 W/m2
12:20 81.4 °F 64.2 °F 29.99 in SW 1.0 mph 2.0 mph 56% 0.00 in 555 W/m2
12:32 81.4 °F 63.2 °F 29.99 in NNW 1.0 mph 1.0 mph 54% 0.00 in 520 W/m2
12:38 82.3 °F 63.5 °F 29.98 in NNW 1.0 mph 1.0 mph 53% 0.00 in 877 W/m2
12:44 82.9 °F 67.1 °F 29.98 in NNW 1.0 mph 1.0 mph 59% 0.00 in 812 W/m2
12:50 83.0 °F 63.0 °F 29.98 in SW 1.0 mph 5.0 mph 51% 0.00 in 828 W/m2
12:56 82.9 °F 64.5 °F 29.97 in West 1.0 mph 2.0 mph 54% 0.00 in 879 W/m2
13:02 82.4 °F 64.1 °F 29.97 in Calm   2.0 mph 54% 0.00 in 432 W/m2
13:08 81.8 °F 63.5 °F 29.97 in SW 1.0 mph 2.0 mph 54% 0.00 in 501 W/m2
13:16 82.3 °F 64.5 °F 29.97 in SW 1.0 mph 3.0 mph 55% 0.00 in 1113 W/m2
13:22 82.9 °F 65.1 °F 29.97 in WSW 2.0 mph 4.0 mph 55% 0.00 in 1079 W/m2
13:28 83.0 °F 65.2 °F 29.97 in NNW 2.0 mph 2.0 mph 55% 0.00 in 731 W/m2
13:34 82.6 °F 65.3 °F 29.97 in WSW 1.0 mph 2.0 mph 56% 0.00 in 689 W/m2
13:40 83.2 °F 68.8 °F 29.97 in WNW 1.0 mph 4.0 mph 62% 0.00 in 940 W/m2
13:46 83.4 °F 66.6 °F 29.97 in SW 1.0 mph 4.0 mph 57% 0.00 in 969 W/m2
13:52 83.4 °F 65.0 °F 29.97 in SW 2.0 mph 4.0 mph 54% 0.00 in 884 W/m2
13:58 83.7 °F 65.8 °F 29.96 in WSW 1.0 mph 3.0 mph 55% 0.00 in 694 W/m2
14:04 83.2 °F 65.4 °F 29.96 in WNW 1.0 mph 3.0 mph 55% 0.00 in 729 W/m2
14:10 83.5 °F 66.7 °F 29.96 in WSW 2.0 mph 2.0 mph 57% 0.00 in 643 W/m2
14:16 83.8 °F 66.9 °F 29.96 in SW 2.0 mph 7.0 mph 57% 0.00 in 513 W/m2
14:22 83.3 °F 67.0 °F 29.96 in SSW 2.0 mph 2.0 mph 58% 0.00 in 478 W/m2
14:28 84.1 °F 69.2 °F 29.95 in WNW 1.0 mph 2.0 mph 61% 0.00 in 914 W/m2
14:34 84.3 °F 67.4 °F 29.95 in WSW 2.0 mph 3.0 mph 57% 0.00 in 1053 W/m2
14:40 84.4 °F 68.5 °F 29.95 in West 3.0 mph 3.0 mph 59% 0.00 in 626 W/m2
14:46 83.7 °F 66.8 °F 29.95 in SSW 2.0 mph 3.0 mph 57% 0.00 in 1069 W/m2
14:52 84.9 °F 66.4 °F 29.95 in WSW 2.0 mph 2.0 mph 54% 0.00 in 1111 W/m2
14:58 84.3 °F 66.9 °F 29.95 in NW 2.0 mph 2.0 mph 56% 0.00 in 455 W/m2
15:04 83.5 °F 66.2 °F 29.94 in NW 1.0 mph 3.0 mph 56% 0.00 in 540 W/m2
15:10 84.7 °F 68.8 °F 29.94 in NW 1.0 mph 1.0 mph 59% 0.00 in 647 W/m2
15:16 84.5 °F 67.1 °F 29.94 in West 1.0 mph 3.0 mph 56% 0.00 in 571 W/m2
15:22 84.2 °F 66.8 °F 29.94 in NNW 2.0 mph 3.0 mph 56% 0.00 in 489 W/m2
15:28 84.4 °F 68.0 °F 29.94 in West 1.0 mph 4.0 mph 58% 0.00 in 420 W/m2
15:34 83.7 °F 66.8 °F 29.94 in WSW 1.0 mph 4.0 mph 57% 0.00 in 464 W/m2
15:40 83.2 °F 66.4 °F 29.94 in SSW 2.0 mph 2.0 mph 57% 0.00 in 343 W/m2
15:46 82.9 °F 68.5 °F 29.94 in WSW 1.0 mph 2.0 mph 62% 0.00 in 390 W/m2
15:52 82.8 °F 67.5 °F 29.94 in Calm   1.0 mph 60% 0.00 in 496 W/m2
15:58 84.3 °F 69.9 °F 29.94 in Calm   1.0 mph 62% 0.00 in 896 W/m2
16:04 84.9 °F 68.5 °F 29.94 in NW 1.0 mph 1.0 mph 58% 0.00 in 831 W/m2
16:10 85.3 °F 71.3 °F 29.93 in SW 1.0 mph 1.0 mph 63% 0.00 in 763 W/m2
16:16 84.7 °F 67.3 °F 29.93 in West 2.0 mph 6.0 mph 56% 0.00 in 740 W/m2
16:22 84.6 °F 67.7 °F 29.92 in WSW 2.0 mph 3.0 mph 57% 0.00 in 714 W/m2
16:28 85.7 °F 68.2 °F 29.92 in WSW 1.0 mph 3.0 mph 56% 0.00 in 710 W/m2
16:34 85.1 °F 68.7 °F 29.92 in West 1.0 mph 7.0 mph 58% 0.00 in 258 W/m2
16:40 84.6 °F 67.2 °F 29.92 in SW 2.0 mph 2.0 mph 56% 0.00 in 258 W/m2
16:46 84.8 °F 67.9 °F 29.92 in SW 1.0 mph 2.0 mph 57% 0.00 in 499 W/m2
16:52 84.9 °F 66.4 °F 29.92 in West 2.0 mph 2.0 mph 54% 0.00 in 636 W/m2
16:58 84.9 °F 66.9 °F 29.92 in WSW 1.0 mph 3.0 mph 55% 0.00 in 292 W/m2
17:04 84.6 °F 66.7 °F 29.92 in WSW 1.0 mph 4.0 mph 55% 0.00 in 162 W/m2
17:10 84.3 °F 66.4 °F 29.92 in WSW 1.0 mph 1.0 mph 55% 0.00 in 100 W/m2
17:14 84.3 °F 67.9 °F 29.92 in NNW 1.0 mph 1.0 mph 58% 0.00 in 113 W/m2
17:20 84.1 °F 66.7 °F 29.92 in WSW 1.0 mph 1.0 mph 56% 0.00 in 118 W/m2
17:26 83.9 °F 67.0 °F 29.92 in WSW 1.0 mph 1.0 mph 57% 0.00 in 169 W/m2
17:32 83.8 °F 67.4 °F 29.92 in WSW 1.0 mph 2.0 mph 58% 0.00 in 176 W/m2
17:38 83.7 °F 67.4 °F 29.92 in SW 1.0 mph 2.0 mph 58% 0.00 in 204 W/m2
17:44 83.6 °F 67.8 °F 29.92 in SW 1.0 mph 1.0 mph 59% 0.00 in 213 W/m2
17:50 83.5 °F 67.2 °F 29.92 in SW 1.0 mph 1.0 mph 58% 0.00 in 141 W/m2
17:52 83.5 °F 68.2 °F 29.92 in SW 1.0 mph 1.0 mph 60% 0.00 in 135 W/m2
17:58 83.4 °F 67.6 °F 29.92 in SW 1.0 mph 2.0 mph 59% 0.00 in 181 W/m2
18:04 83.4 °F 67.6 °F 29.92 in SW 1.0 mph 2.0 mph 59% 0.00 in 195 W/m2
18:10 83.8 °F 67.9 °F 29.92 in SW 1.0 mph 1.0 mph 59% 0.00 in 123 W/m2
18:16 83.9 °F 68.0 °F 29.92 in SW 1.0 mph 3.0 mph 59% 0.00 in 88 W/m2
18:22 83.8 °F 68.4 °F 29.91 in WSW 1.0 mph 2.0 mph 60% 0.00 in 58 W/m2
18:28 83.6 °F 67.3 °F 29.91 in NW 1.0 mph 4.0 mph 58% 0.00 in 54 W/m2
18:34 83.4 °F 68.1 °F 29.91 in SW 2.0 mph 6.0 mph 60% 0.00 in 49 W/m2
18:40 83.3 °F 67.5 °F 29.91 in WSW 2.0 mph 2.0 mph 59% 0.00 in 49 W/m2
18:46 83.2 °F 66.9 °F 29.92 in SW 1.0 mph 2.0 mph 58% 0.00 in 47 W/m2
18:52 83.0 °F 68.2 °F 29.92 in SW 1.0 mph 1.0 mph 61% 0.00 in 51 W/m2
18:58 82.8 °F 67.5 °F 29.92 in Calm   1.0 mph 60% 0.00 in 47 W/m2
19:04 82.7 °F 66.9 °F 29.92 in Calm   1.0 mph 59% 0.00 in 42 W/m2
19:10 82.9 °F 67.1 °F 29.92 in WSW 1.0 mph 1.0 mph 59% 0.00 in 40 W/m2
19:16 82.7 °F 66.9 °F 29.91 in WSW 1.0 mph 2.0 mph 59% 0.00 in 37 W/m2
19:22 82.7 °F 66.4 °F 29.91 in SW 1.0 mph 4.0 mph 58% 0.00 in 39 W/m2
19:28 82.5 °F 67.2 °F 29.91 in SW 1.0 mph 4.0 mph 60% 0.00 in 39 W/m2
19:34 82.2 °F 66.9 °F 29.91 in Calm   1.0 mph 60% 0.00 in 32 W/m2
19:40 81.9 °F 67.1 °F 29.92 in Calm     61% 0.00 in 32 W/m2
19:46 81.8 °F 69.3 °F 29.92 in Calm     66% 0.00 in 32 W/m2
19:52 81.1 °F 69.5 °F 29.92 in Calm     68% 0.00 in 26 W/m2
19:58 79.9 °F 69.2 °F 29.92 in Calm     70% 0.00 in 23 W/m2
20:04 79.2 °F 69.4 °F 29.92 in Calm     72% 0.00 in 19 W/m2
20:10 78.4 °F 69.8 °F 29.92 in Calm     75% 0.00 in 16 W/m2
20:16 77.8 °F 69.2 °F 29.92 in Calm     75% 0.00 in 14 W/m2
20:22 77.4 °F 69.2 °F 29.92 in Calm     76% 0.00 in 11 W/m2
20:28 77.1 °F 69.3 °F 29.92 in Calm     77% 0.00 in 7 W/m2
20:34 76.8 °F 69.4 °F 29.92 in Calm     78% 0.00 in 5 W/m2
20:40 76.4 °F 69.0 °F 29.92 in Calm     78% 0.00 in 0 W/m2
20:46 76.2 °F 69.2 °F 29.92 in Calm     79% 0.00 in 0 W/m2
20:52 75.9 °F 68.9 °F 29.92 in Calm     79% 0.00 in 0 W/m2
20:58 75.6 °F 69.0 °F 29.92 in Calm     80% 0.00 in 0 W/m2
21:06 75.4 °F 69.2 °F 29.93 in Calm     81% 0.00 in 0 W/m2
21:12 75.3 °F 69.4 °F 29.93 in Calm     82% 0.00 in 0 W/m2
21:18 75.3 °F 69.4 °F 29.93 in Calm     82% 0.00 in 0 W/m2
21:24 75.2 °F 69.7 °F 29.93 in Calm     83% 0.00 in 0 W/m2
21:30 75.2 °F 69.7 °F 29.93 in Calm     83% 0.00 in 0 W/m2
21:36 75.0 °F 69.5 °F 29.94 in Calm     83% 0.00 in 0 W/m2
21:42 74.8 °F 69.6 °F 29.94 in Calm     84% 0.00 in 0 W/m2
21:48 74.5 °F 69.3 °F 29.94 in Calm     84% 0.00 in 0 W/m2
21:54 74.4 °F 69.2 °F 29.94 in Calm     84% 0.00 in 0 W/m2
22:00 74.3 °F 69.1 °F 29.93 in Calm     84% 0.00 in 0 W/m2
22:06 74.2 °F 69.1 °F 29.93 in Calm     84% 0.00 in 0 W/m2
22:12 74.0 °F 68.9 °F 29.93 in Calm     84% 0.00 in 0 W/m2
22:18 73.8 °F 69.0 °F 29.94 in Calm     85% 0.00 in 0 W/m2
22:24 73.5 °F 68.7 °F 29.94 in Calm     85% 0.00 in 0 W/m2
22:30 73.4 °F 68.6 °F 29.94 in Calm     85% 0.00 in 0 W/m2
22:36 73.3 °F 68.9 °F 29.94 in Calm     86% 0.00 in 0 W/m2
22:42 73.3 °F 68.9 °F 29.94 in Calm     86% 0.00 in 0 W/m2
22:48 73.2 °F 68.8 °F 29.94 in Calm     86% 0.00 in 0 W/m2
22:54 73.1 °F 68.7 °F 29.94 in Calm     86% 0.00 in 0 W/m2
23:00 72.8 °F 68.7 °F 29.94 in Calm     87% 0.00 in 0 W/m2
23:06 72.7 °F 68.6 °F 29.94 in Calm     87% 0.00 in 0 W/m2
23:12 72.7 °F 68.9 °F 29.94 in Calm     88% 0.00 in 0 W/m2
23:18 72.7 °F 68.9 °F 29.94 in Calm     88% 0.00 in 0 W/m2
23:24 72.5 °F 68.7 °F 29.94 in Calm     88% 0.00 in 0 W/m2
23:30 72.4 °F 68.6 °F 29.94 in Calm     88% 0.00 in 0 W/m2
23:36 72.1 °F 68.3 °F 29.94 in Calm     88% 0.00 in 0 W/m2
23:42 71.8 °F 68.1 °F 29.94 in Calm     88% 0.00 in 0 W/m2
23:48 71.7 °F 68.0 °F 29.94 in Calm     88% 0.00 in 0 W/m2
23:54 71.5 °F 68.1 °F 29.94 in Calm     89% 0.00 in 0 W/m2
Country Meadow, Clay, NY, USA
Compliments of Weather Underground - 2 mb